Time,TemperatureF,DewpointF,PressureIn,WindDirection,WindDirectionDegrees,WindSpeedMPH,WindSpeedGustMPH,Humidity,HourlyPrecipIn,Conditions,Clouds,dailyrainin,SoftwareType,DateUTC
2013-07-09 00:00:00,73.3,70.8,30.01,West,273,7.0,37.0,92,0.00,,,0.00,Wunderground v.1.15,2013-07-09 04:00:00,
2013-07-09 00:10:00,73.2,71.1,30.02,SSW,211,6.0,6.0,93,0.00,,,0.00,Wunderground v.1.15,2013-07-09 04:10:00,
2013-07-09 00:20:00,73.1,71.0,30.01,West,276,4.0,4.0,93,0.00,,,0.00,Wunderground v.1.15,2013-07-09 04:20:00,
2013-07-09 00:30:00,73.1,71.0,30.01,WSW,252,4.0,37.0,93,0.00,,,0.00,Wunderground v.1.15,2013-07-09 04:30:00,
2013-07-09 00:40:00,72.9,70.8,30.01,SW,233,3.0,37.0,93,0.00,,,0.00,Wunderground v.1.15,2013-07-09 04:40:00,
2013-07-09 00:50:00,72.8,71.0,30.01,WSW,248,3.0,37.0,94,0.00,,,0.00,Wunderground v.1.15,2013-07-09 04:50:00,
2013-07-09 01:00:00,72.5,70.7,30.01,WNW,289,3.0,37.0,94,0.00,,,0.00,Wunderground v.1.15,2013-07-09 05:00:00,
2013-07-09 01:10:00,72.2,70.4,30.01,West,262,3.0,37.0,94,0.00,,,0.00,Wunderground v.1.15,2013-07-09 05:10:00,
2013-07-09 01:20:00,71.8,70.0,30.01,WSW,250,2.0,37.0,94,0.00,,,0.00,Wunderground v.1.15,2013-07-09 05:20:00,
2013-07-09 01:30:00,71.6,70.1,30.01,WSW,256,3.0,3.0,95,0.00,,,0.00,Wunderground v.1.15,2013-07-09 05:30:00,
2013-07-09 01:40:00,71.4,69.9,30.00,WSW,253,3.0,37.0,95,0.00,,,0.00,Wunderground v.1.15,2013-07-09 05:40:00,
2013-07-09 01:50:00,71.2,70.0,30.00,SW,218,3.0,37.0,96,0.00,,,0.00,Wunderground v.1.15,2013-07-09 05:50:00,
2013-07-09 02:00:00,71.2,70.0,30.00,WSW,243,3.0,37.0,96,0.00,,,0.00,Wunderground v.1.15,2013-07-09 06:00:00,
2013-07-09 02:10:00,71.4,70.2,30.00,WSW,240,3.0,37.0,96,0.00,,,0.00,Wunderground v.1.15,2013-07-09 06:10:00,
2013-07-09 02:20:00,71.9,71.0,30.00,WSW,257,5.0,5.0,97,0.00,,,0.00,Wunderground v.1.15,2013-07-09 06:20:00,
2013-07-09 02:30:00,72.2,71.0,30.00,SW,236,4.0,4.0,96,0.00,,,0.00,Wunderground v.1.15,2013-07-09 06:30:00,
2013-07-09 02:40:00,72.4,71.2,30.01,WSW,240,4.0,37.0,96,0.00,,,0.00,Wunderground v.1.15,2013-07-09 06:40:00,
2013-07-09 02:50:00,72.5,71.3,30.01,SW,226,4.0,4.0,96,0.00,,,0.00,Wunderground v.1.15,2013-07-09 06:50:00,
2013-07-09 03:00:00,72.5,71.0,30.01,WNW,293,3.0,37.0,95,0.00,,,0.00,Wunderground v.1.15,2013-07-09 07:00:00,
2013-07-09 03:10:00,71.8,70.3,30.01,WSW,247,4.0,37.0,95,0.00,,,0.00,Wunderground v.1.15,2013-07-09 07:10:00,
2013-07-09 03:20:00,71.6,70.1,30.01,WNW,301,3.0,37.0,95,0.00,,,0.00,Wunderground v.1.15,2013-07-09 07:20:00,
2013-07-09 03:30:00,71.2,69.7,30.01,North,352,3.0,37.0,95,0.00,,,0.00,Wunderground v.1.15,2013-07-09 07:30:00,
2013-07-09 03:40:00,70.7,69.5,30.01,NW,317,2.0,2.0,96,0.00,,,0.00,Wunderground v.1.15,2013-07-09 07:40:00,
2013-07-09 04:00:00,69.9,69.0,30.01,WNW,297,3.0,3.0,97,0.00,,,0.00,Wunderground v.1.15,2013-07-09 08:00:00,
2013-07-09 04:10:00,69.7,68.8,30.00,North,11,2.0,2.0,97,0.00,,,0.00,Wunderground v.1.15,2013-07-09 08:10:00,
2013-07-09 04:20:00,69.6,69.0,30.00,WNW,287,2.0,37.0,98,0.00,,,0.00,Wunderground v.1.15,2013-07-09 08:20:00,
2013-07-09 04:30:00,69.6,69.0,30.00,NW,307,1.0,37.0,98,0.00,,,0.00,Wunderground v.1.15,2013-07-09 08:30:00,
2013-07-09 04:40:00,69.6,69.0,30.00,North,11,1.0,1.0,98,0.00,,,0.00,Wunderground v.1.15,2013-07-09 08:40:00,
2013-07-09 04:50:00,69.7,69.1,30.01,North,356,1.0,37.0,98,0.00,,,0.00,Wunderground v.1.15,2013-07-09 08:50:00,
2013-07-09 05:00:00,69.7,69.1,30.01,North,352,1.0,37.0,98,0.00,,,0.00,Wunderground v.1.15,2013-07-09 09:00:00,
2013-07-09 05:10:00,69.8,69.2,30.01,North,358,0.0,37.0,98,0.00,,,0.00,Wunderground v.1.15,2013-07-09 09:10:00,
2013-07-09 05:20:00,69.9,69.3,30.02,North,349,0.0,37.0,98,0.00,,,0.00,Wunderground v.1.15,2013-07-09 09:20:00,
2013-07-09 05:30:00,70.1,69.5,30.02,NW,321,1.0,1.0,98,0.00,,,0.00,Wunderground v.1.15,2013-07-09 09:30:00,
2013-07-09 05:40:00,70.2,69.6,30.02,NW,304,2.0,37.0,98,0.00,,,0.00,Wunderground v.1.15,2013-07-09 09:40:00,
2013-07-09 05:50:00,70.2,69.6,30.03,NW,319,2.0,37.0,98,0.00,,,0.00,Wunderground v.1.15,2013-07-09 09:50:00,
2013-07-09 06:00:00,70.1,69.5,30.02,North,352,3.0,37.0,98,0.00,,,0.00,Wunderground v.1.15,2013-07-09 10:00:00,
2013-07-09 06:10:00,70.0,69.4,30.03,NW,323,4.0,4.0,98,0.00,,,0.00,Wunderground v.1.15,2013-07-09 10:10:00,
2013-07-09 06:20:00,69.8,69.2,30.04,NW,321,2.0,37.0,98,0.00,,,0.00,Wunderground v.1.15,2013-07-09 10:20:00,
2013-07-09 06:30:00,69.6,69.0,30.04,NW,307,2.0,37.0,98,0.00,,,0.00,Wunderground v.1.15,2013-07-09 10:30:00,
2013-07-09 06:40:00,69.6,69.0,30.04,North,356,2.0,37.0,98,0.00,,,0.00,Wunderground v.1.15,2013-07-09 10:40:00,
2013-07-09 06:50:00,69.6,69.0,30.05,NNW,346,3.0,3.0,98,0.00,,,0.00,Wunderground v.1.15,2013-07-09 10:50:00,
2013-07-09 07:00:00,69.6,69.0,30.05,NW,309,2.0,37.0,98,0.00,,,0.00,Wunderground v.1.15,2013-07-09 11:00:00,
2013-07-09 07:10:00,69.6,69.0,30.05,NNW,338,2.0,37.0,98,0.00,,,0.00,Wunderground v.1.15,2013-07-09 11:10:00,
2013-07-09 07:20:00,69.6,69.0,30.05,North,356,1.0,37.0,98,0.00,,,0.00,Wunderground v.1.15,2013-07-09 11:20:00,
2013-07-09 07:30:00,69.6,69.0,30.05,NNW,328,1.0,37.0,98,0.00,,,0.00,Wunderground v.1.15,2013-07-09 11:30:00,
2013-07-09 07:40:00,69.8,69.2,30.05,WSW,255,1.0,1.0,98,0.00,,,0.00,Wunderground v.1.15,2013-07-09 11:40:00,
2013-07-09 07:50:00,70.0,69.4,30.05,SSE,148,1.0,1.0,98,0.00,,,0.00,Wunderground v.1.15,2013-07-09 11:50:00,
2013-07-09 08:00:00,70.2,69.6,30.05,WNW,287,1.0,37.0,98,0.00,,,0.00,Wunderground v.1.15,2013-07-09 12:00:00,
2013-07-09 08:10:00,70.5,69.9,30.05,SE,134,1.0,1.0,98,0.00,,,0.00,Wunderground v.1.15,2013-07-09 12:10:00,
2013-07-09 08:20:00,70.7,70.1,30.05,NW,314,1.0,37.0,98,0.00,,,0.00,Wunderground v.1.15,2013-07-09 12:20:00,
2013-07-09 08:30:00,70.7,70.1,30.05,NNW,335,2.0,2.0,98,0.00,,,0.00,Wunderground v.1.15,2013-07-09 12:30:00,
2013-07-09 08:40:00,71.1,70.5,30.05,NNE,19,2.0,37.0,98,0.00,,,0.00,Wunderground v.1.15,2013-07-09 12:40:00,
2013-07-09 08:50:00,71.4,70.5,30.05,NW,326,2.0,37.0,97,0.00,,,0.00,Wunderground v.1.15,2013-07-09 12:50:00,
2013-07-09 09:00:00,71.8,70.9,30.06,NW,307,2.0,37.0,97,0.00,,,0.00,Wunderground v.1.15,2013-07-09 13:00:00,
2013-07-09 09:10:00,72.0,70.5,30.05,NNE,15,3.0,37.0,95,0.00,,,0.00,Wunderground v.1.15,2013-07-09 13:10:00,
2013-07-09 09:20:00,72.1,70.3,30.05,NW,309,3.0,37.0,94,0.00,,,0.00,Wunderground v.1.15,2013-07-09 13:20:00,
2013-07-09 09:30:00,72.5,70.4,30.05,North,352,3.0,37.0,93,0.00,,,0.00,Wunderground v.1.15,2013-07-09 13:30:00,
2013-07-09 09:40:00,72.9,70.8,30.05,NNW,344,2.0,2.0,93,0.00,,,0.00,Wunderground v.1.15,2013-07-09 13:40:00,
2013-07-09 09:50:00,73.5,71.0,30.05,NNW,327,2.0,37.0,92,0.00,,,0.00,Wunderground v.1.15,2013-07-09 13:50:00,
2013-07-09 10:00:00,73.4,70.6,30.05,North,354,3.0,3.0,91,0.00,,,0.00,Wunderground v.1.15,2013-07-09 14:00:00,
2013-07-09 10:10:00,73.8,71.0,30.05,WNW,287,1.0,1.0,91,0.00,,,0.00,Wunderground v.1.15,2013-07-09 14:10:00,
2013-07-09 10:20:00,73.9,70.8,30.05,ENE,72,2.0,2.0,90,0.00,,,0.00,Wunderground v.1.15,2013-07-09 14:20:00,
2013-07-09 10:30:00,73.8,71.0,30.05,NE,41,2.0,37.0,91,0.00,,,0.00,Wunderground v.1.15,2013-07-09 14:30:00,
2013-07-09 10:40:00,74.4,71.3,30.05,West,277,2.0,2.0,90,0.00,,,0.00,Wunderground v.1.15,2013-07-09 14:40:00,
2013-07-09 10:50:00,74.6,71.5,30.06,ESE,113,2.0,2.0,90,0.00,,,0.00,Wunderground v.1.15,2013-07-09 14:50:00,
2013-07-09 11:00:00,73.4,70.3,30.06,SE,129,3.0,37.0,90,0.00,,,0.00,Wunderground v.1.15,2013-07-09 15:00:00,
2013-07-09 11:10:00,72.7,69.9,30.06,SE,125,3.0,37.0,91,0.00,,,0.00,Wunderground v.1.15,2013-07-09 15:10:00,
2013-07-09 11:20:00,72.2,70.1,30.06,ESE,109,4.0,4.0,93,0.00,,,0.00,Wunderground v.1.15,2013-07-09 15:20:00,
2013-07-09 11:30:00,72.4,70.3,30.06,SE,124,4.0,4.0,93,0.00,,,0.00,Wunderground v.1.15,2013-07-09 15:30:00,
2013-07-09 11:40:00,73.0,70.5,30.06,ESE,122,3.0,37.0,92,0.00,,,0.00,Wunderground v.1.15,2013-07-09 15:40:00,
2013-07-09 11:50:00,73.0,70.5,30.06,ESE,120,3.0,3.0,92,0.00,,,0.00,Wunderground v.1.15,2013-07-09 15:50:00,
2013-07-09 12:00:00,73.3,70.8,30.06,SSE,151,2.0,37.0,92,0.00,,,0.00,Wunderground v.1.15,2013-07-09 16:00:00,
2013-07-09 12:10:00,73.8,71.0,30.06,SSW,194,4.0,4.0,91,0.00,,,0.00,Wunderground v.1.15,2013-07-09 16:10:00,
2013-07-09 12:20:00,74.1,71.0,30.06,SE,146,3.0,3.0,90,0.00,,,0.00,Wunderground v.1.15,2013-07-09 16:20:00,
2013-07-09 12:30:00,73.4,70.3,30.07,NNW,346,2.0,37.0,90,0.00,,,0.00,Wunderground v.1.15,2013-07-09 16:30:00,
2013-07-09 12:40:00,71.5,69.1,30.06,NNE,18,5.0,5.0,92,0.00,,,0.00,Wunderground v.1.15,2013-07-09 16:40:00,
2013-07-09 12:50:00,70.8,68.7,30.07,NNW,347,4.0,37.0,93,0.00,,,0.00,Wunderground v.1.15,2013-07-09 16:50:00,
2013-07-09 13:00:00,70.7,68.9,30.06,NE,48,3.0,37.0,94,0.00,,,0.00,Wunderground v.1.15,2013-07-09 17:00:00,
2013-07-09 13:10:00,71.0,69.2,30.06,NE,40,2.0,37.0,94,0.00,,,0.00,Wunderground v.1.15,2013-07-09 17:10:00,
2013-07-09 13:20:00,71.4,69.3,30.06,NNE,15,1.0,37.0,93,0.00,,,0.00,Wunderground v.1.15,2013-07-09 17:20:00,
2013-07-09 13:30:00,71.2,68.8,30.06,North,11,2.0,37.0,92,0.00,,,0.00,Wunderground v.1.15,2013-07-09 17:30:00,
2013-07-09 13:40:00,70.8,68.7,30.06,NNE,22,4.0,37.0,93,0.00,,,0.00,Wunderground v.1.15,2013-07-09 17:40:00,
2013-07-09 13:50:00,70.7,68.6,30.06,North,6,4.0,4.0,93,0.00,,,0.00,Wunderground v.1.15,2013-07-09 17:50:00,
2013-07-09 14:00:00,71.6,69.5,30.06,NW,326,3.0,37.0,93,0.00,,,0.00,Wunderground v.1.15,2013-07-09 18:00:00,
2013-07-09 14:10:00,71.8,69.0,30.06,NE,37,4.0,4.0,91,0.00,,,0.00,Wunderground v.1.15,2013-07-09 18:10:00,
2013-07-09 14:20:00,71.4,68.6,30.06,NE,42,4.0,37.0,91,0.00,,,0.00,Wunderground v.1.15,2013-07-09 18:20:00,
2013-07-09 14:30:00,71.0,68.2,30.06,NNE,23,5.0,37.0,91,0.00,,,0.00,Wunderground v.1.15,2013-07-09 18:30:00,
2013-07-09 14:40:00,70.7,68.3,30.06,NE,49,5.0,37.0,92,0.00,,,0.00,Wunderground v.1.15,2013-07-09 18:40:00,
2013-07-09 14:50:00,71.3,68.5,30.06,NNW,342,3.0,37.0,91,0.00,,,0.00,Wunderground v.1.15,2013-07-09 18:50:00,
2013-07-09 15:00:00,71.3,68.5,30.06,North,9,3.0,3.0,91,0.00,,,0.00,Wunderground v.1.15,2013-07-09 19:00:00,
2013-07-09 15:10:00,72.4,69.6,30.06,WNW,297,3.0,3.0,91,0.00,,,0.00,Wunderground v.1.15,2013-07-09 19:10:00,
2013-07-09 15:20:00,73.1,69.3,30.06,NE,41,2.0,37.0,88,0.00,,,0.00,Wunderground v.1.15,2013-07-09 19:20:00,
2013-07-09 15:30:00,72.2,68.8,30.06,NE,44,4.0,37.0,89,0.00,,,0.00,Wunderground v.1.15,2013-07-09 19:30:00,
2013-07-09 15:40:00,72.2,69.4,30.06,North,11,3.0,3.0,91,0.00,,,0.00,Wunderground v.1.15,2013-07-09 19:40:00,
2013-07-09 15:50:00,72.3,69.2,30.06,ESE,104,2.0,37.0,90,0.00,,,0.00,Wunderground v.1.15,2013-07-09 19:50:00,
2013-07-09 16:00:00,71.1,68.3,30.06,East,88,4.0,4.0,91,0.00,,,0.00,Wunderground v.1.15,2013-07-09 20:00:00,
2013-07-09 16:10:00,70.9,68.5,30.06,East,95,3.0,3.0,92,0.00,,,0.00,Wunderground v.1.15,2013-07-09 20:10:00,
2013-07-09 16:20:00,71.2,68.8,30.06,SE,127,1.0,37.0,92,0.00,,,0.00,Wunderground v.1.15,2013-07-09 20:20:00,
2013-07-09 16:30:00,71.5,69.1,30.05,SE,125,1.0,37.0,92,0.00,,,0.01,Wunderground v.1.15,2013-07-09 20:30:00,
2013-07-09 16:40:00,70.8,69.0,30.05,SE,129,3.0,37.0,94,0.15,,,0.04,Wunderground v.1.15,2013-07-09 20:40:00,
2013-07-09 16:50:00,70.6,69.1,30.05,ENE,58,2.0,2.0,95,0.08,,,0.05,Wunderground v.1.15,2013-07-09 20:50:00,
2013-07-09 17:00:00,70.5,69.3,30.04,NNE,15,1.0,37.0,96,0.00,,,0.05,Wunderground v.1.15,2013-07-09 21:00:00,
2013-07-09 17:10:00,70.4,68.9,30.04,North,10,2.0,37.0,95,0.00,,,0.05,Wunderground v.1.15,2013-07-09 21:10:00,
2013-07-09 17:20:00,70.3,69.1,30.04,NE,53,2.0,37.0,96,0.00,,,0.05,Wunderground v.1.15,2013-07-09 21:20:00,
2013-07-09 17:30:00,70.2,69.0,30.04,NW,323,2.0,37.0,96,0.00,,,0.05,Wunderground v.1.15,2013-07-09 21:30:00,
2013-07-09 17:40:00,70.4,69.2,30.03,ENE,58,1.0,37.0,96,0.00,,,0.05,Wunderground v.1.15,2013-07-09 21:40:00,
2013-07-09 17:50:00,70.8,69.6,30.04,NNE,15,1.0,37.0,96,0.00,,,0.05,Wunderground v.1.15,2013-07-09 21:50:00,
2013-07-09 18:00:00,71.5,70.3,30.03,North,354,1.0,37.0,96,0.00,,,0.05,Wunderground v.1.15,2013-07-09 22:00:00,
2013-07-09 18:10:00,71.1,69.6,30.03,NNE,18,2.0,2.0,95,0.00,,,0.05,Wunderground v.1.15,2013-07-09 22:10:00,
2013-07-09 18:20:00,70.6,69.4,30.03,NNE,15,2.0,37.0,96,0.00,,,0.05,Wunderground v.1.15,2013-07-09 22:20:00,
2013-07-09 18:30:00,70.1,68.9,30.03,NE,54,3.0,3.0,96,0.00,,,0.05,Wunderground v.1.15,2013-07-09 22:30:00,
2013-07-09 18:40:00,69.8,68.6,30.03,ENE,63,3.0,37.0,96,0.00,,,0.05,Wunderground v.1.15,2013-07-09 22:40:00,
2013-07-09 18:50:00,69.5,68.3,30.04,NE,46,3.0,37.0,96,0.00,,,0.05,Wunderground v.1.15,2013-07-09 22:50:00,
2013-07-09 19:00:00,69.5,68.6,30.04,NE,52,2.0,2.0,97,0.00,,,0.05,Wunderground v.1.15,2013-07-09 23:00:00,
2013-07-09 19:10:00,69.8,68.6,30.05,North,349,1.0,37.0,96,0.00,,,0.05,Wunderground v.1.15,2013-07-09 23:10:00,
2013-07-09 19:20:00,69.7,68.5,30.04,North,10,2.0,37.0,96,0.00,,,0.05,Wunderground v.1.15,2013-07-09 23:20:00,
2013-07-09 19:30:00,69.5,68.3,30.04,NE,43,3.0,3.0,96,0.00,,,0.05,Wunderground v.1.15,2013-07-09 23:30:00,
2013-07-09 19:40:00,69.4,68.5,30.04,ENE,65,2.0,2.0,97,0.00,,,0.05,Wunderground v.1.15,2013-07-09 23:40:00,
2013-07-09 19:50:00,69.2,68.3,30.04,NE,42,2.0,37.0,97,0.00,,,0.05,Wunderground v.1.15,2013-07-09 23:50:00,
2013-07-09 20:00:00,69.1,68.2,30.04,ENE,73,2.0,37.0,97,0.00,,,0.05,Wunderground v.1.15,2013-07-10 00:00:00,
2013-07-09 20:10:00,68.9,68.0,30.04,NE,56,2.0,37.0,97,0.00,,,0.05,Wunderground v.1.15,2013-07-10 00:10:00,
2013-07-09 20:20:00,68.9,68.0,30.04,ENE,68,2.0,2.0,97,0.00,,,0.05,Wunderground v.1.15,2013-07-10 00:20:00,
2013-07-09 20:30:00,69.0,68.1,30.04,NE,44,1.0,37.0,97,0.00,,,0.05,Wunderground v.1.15,2013-07-10 00:30:00,
2013-07-09 20:40:00,69.0,68.1,30.05,ENE,74,2.0,37.0,97,0.00,,,0.05,Wunderground v.1.15,2013-07-10 00:40:00,
2013-07-09 20:50:00,68.9,68.0,30.05,ENE,74,2.0,2.0,97,0.00,,,0.05,Wunderground v.1.15,2013-07-10 00:50:00,
2013-07-09 21:00:00,69.0,68.1,30.06,ENE,65,2.0,2.0,97,0.00,,,0.05,Wunderground v.1.15,2013-07-10 01:00:00,
2013-07-09 21:10:00,68.9,68.0,30.06,ENE,71,2.0,37.0,97,0.00,,,0.05,Wunderground v.1.15,2013-07-10 01:10:00,
2013-07-09 21:20:00,68.8,67.9,30.06,East,101,3.0,3.0,97,0.00,,,0.05,Wunderground v.1.15,2013-07-10 01:20:00,
2013-07-09 21:30:00,68.9,68.0,30.06,East,92,2.0,37.0,97,0.00,,,0.05,Wunderground v.1.15,2013-07-10 01:30:00,
2013-07-09 21:40:00,68.9,68.0,30.06,SE,127,3.0,37.0,97,0.00,,,0.05,Wunderground v.1.15,2013-07-10 01:40:00,
2013-07-09 21:50:00,68.8,67.9,30.07,SE,132,4.0,37.0,97,0.00,,,0.05,Wunderground v.1.15,2013-07-10 01:50:00,
2013-07-09 22:00:00,68.8,67.9,30.06,SE,142,3.0,3.0,97,0.00,,,0.05,Wunderground v.1.15,2013-07-10 02:00:00,
2013-07-09 22:10:00,68.8,67.9,30.06,ENE,75,4.0,37.0,97,0.00,,,0.05,Wunderground v.1.15,2013-07-10 02:10:00,
2013-07-09 22:20:00,68.7,67.8,30.05,East,92,4.0,4.0,97,0.00,,,0.05,Wunderground v.1.15,2013-07-10 02:20:00,
2013-07-09 22:30:00,68.6,68.0,30.05,ENE,70,2.0,37.0,98,0.00,,,0.05,Wunderground v.1.15,2013-07-10 02:30:00,
2013-07-09 22:40:00,68.6,68.0,30.05,ESE,109,2.0,37.0,98,0.00,,,0.05,Wunderground v.1.15,2013-07-10 02:40:00,
2013-07-09 22:50:00,68.6,68.0,30.05,ENE,60,3.0,37.0,98,0.00,,,0.05,Wunderground v.1.15,2013-07-10 02:50:00,
2013-07-09 23:00:00,68.6,68.0,30.06,ENE,60,2.0,37.0,98,0.00,,,0.05,Wunderground v.1.15,2013-07-10 03:00:00,
2013-07-09 23:10:00,68.6,68.0,30.06,East,96,2.0,37.0,98,0.00,,,0.05,Wunderground v.1.15,2013-07-10 03:10:00,
2013-07-09 23:20:00,68.7,68.1,30.06,East,86,2.0,37.0,98,0.00,,,0.05,Wunderground v.1.15,2013-07-10 03:20:00,
2013-07-09 23:30:00,68.8,68.2,30.05,SE,129,2.0,37.0,98,0.00,,,0.05,Wunderground v.1.15,2013-07-10 03:30:00,
2013-07-09 23:40:00,68.8,68.2,30.05,ESE,117,4.0,4.0,98,0.00,,,0.05,Wunderground v.1.15,2013-07-10 03:40:00,
2013-07-09 23:50:00,68.5,67.9,30.05,ESE,120,5.0,37.0,98,0.00,,,0.05,Wunderground v.1.15,2013-07-10 03:50:00,